createdAt,value
2018-08-09T00:02:17.410Z,13.63
2018-08-09T00:07:19.561Z,12.93
2018-08-09T00:12:21.716Z,13.53
2018-08-09T00:17:23.910Z,11.27
2018-08-09T00:22:26.073Z,9.97
2018-08-09T00:27:28.230Z,12.30
2018-08-09T00:32:30.386Z,12.40
2018-08-09T00:37:32.637Z,11.67
2018-08-09T00:42:34.796Z,14.77
2018-08-09T00:47:36.961Z,14.40
2018-08-09T00:52:39.105Z,14.13
2018-08-09T00:57:41.309Z,11.90
2018-08-09T01:02:43.452Z,12.63
2018-08-09T01:07:45.617Z,12.43
2018-08-09T01:12:47.790Z,14.83
2018-08-09T01:17:49.956Z,15.17
2018-08-09T01:22:52.101Z,11.63
2018-08-09T01:27:54.253Z,24.20
2018-08-09T01:32:56.512Z,16.97
2018-08-09T01:37:58.549Z,16.97
2018-08-09T01:43:12.442Z,20.17
2018-08-09T01:48:14.628Z,13.03
2018-08-09T01:53:16.800Z,14.33
2018-08-09T01:58:18.985Z,16.13
2018-08-09T02:03:21.167Z,16.23
2018-08-09T02:08:23.340Z,16.50
2018-08-09T02:13:25.490Z,13.90
2018-08-09T02:18:27.686Z,20.60
2018-08-09T02:23:29.908Z,17.93
2018-08-09T02:28:32.063Z,16.80
2018-08-09T02:33:34.281Z,17.30
2018-08-09T02:38:36.442Z,19.77
2018-08-09T02:43:38.638Z,18.63
2018-08-09T02:48:40.786Z,24.63
2018-08-09T02:53:42.959Z,17.93
2018-08-09T02:58:45.142Z,20.27
2018-08-09T03:03:47.330Z,18.63
2018-08-09T03:08:49.490Z,20.87
2018-08-09T03:13:51.617Z,16.10
2018-08-09T03:18:53.758Z,21.50
2018-08-09T03:23:55.901Z,17.80
2018-08-09T03:28:58.041Z,24.00
2018-08-09T03:34:00.188Z,16.97
2018-08-09T03:39:02.400Z,19.47
2018-08-09T03:44:04.617Z,22.70
2018-08-09T03:49:06.770Z,21.80
2018-08-09T03:54:08.921Z,25.00
2018-08-09T03:59:11.078Z,19.60
2018-08-09T04:04:13.234Z,20.00
2018-08-09T04:09:15.389Z,19.23
2018-08-09T04:14:17.545Z,21.23
2018-08-09T04:19:19.693Z,21.40
2018-08-09T04:24:21.833Z,25.83
2018-08-09T04:29:23.993Z,29.87
2018-08-09T04:34:26.178Z,19.73
2018-08-09T04:39:28.326Z,20.37
2018-08-09T04:44:30.475Z,20.67
2018-08-09T04:49:32.609Z,22.70
2018-08-09T04:54:35.214Z,20.20
2018-08-09T04:59:37.345Z,18.83
2018-08-09T05:04:39.493Z,19.93
2018-08-09T05:09:41.658Z,24.20
2018-08-09T05:14:43.793Z,23.73
2018-08-09T05:19:45.940Z,20.10
2018-08-09T05:24:48.089Z,21.57
2018-08-09T05:29:50.238Z,20.10
2018-08-09T05:34:52.396Z,21.20
2018-08-09T05:39:54.546Z,18.27
2018-08-09T05:44:56.670Z,19.90
2018-08-09T05:49:58.902Z,25.00
2018-08-09T05:55:01.174Z,26.23
2018-08-09T06:00:04.905Z,20.30
2018-08-09T06:05:07.052Z,22.20
2018-08-09T06:10:09.241Z,21.77
2018-08-09T06:15:11.406Z,20.23
2018-08-09T06:20:13.633Z,25.63
2018-08-09T06:25:15.785Z,20.07
2018-08-09T06:30:17.945Z,16.87
2018-08-09T06:35:20.158Z,18.50
2018-08-09T06:40:22.383Z,13.90
2018-08-09T06:45:24.593Z,15.10
2018-08-09T06:50:26.777Z,11.30
2018-08-09T06:55:28.962Z,12.53
2018-08-09T07:00:31.142Z,17.03
2018-08-09T07:05:33.323Z,16.73
2018-08-09T07:10:35.638Z,9.60
2018-08-09T07:15:37.817Z,10.73
2018-08-09T07:20:40.035Z,15.37
2018-08-09T07:25:42.245Z,14.13
2018-08-09T07:30:44.414Z,11.70
2018-08-09T07:35:46.610Z,10.00
2018-08-09T07:40:48.766Z,13.10
2018-08-09T07:45:50.922Z,14.73
2018-08-09T07:50:53.097Z,12.50
2018-08-09T07:55:55.244Z,13.90
2018-08-09T08:00:57.433Z,13.03
2018-08-09T08:05:59.660Z,12.03
2018-08-09T08:11:03.209Z,11.37
2018-08-09T08:16:05.430Z,19.30
2018-08-09T08:21:07.648Z,14.93
2018-08-09T08:26:09.795Z,13.67
2018-08-09T08:31:11.970Z,11.20
2018-08-09T08:36:14.253Z,15.40
2018-08-09T08:41:16.425Z,17.87
2018-08-09T08:46:18.604Z,19.13
2018-08-09T08:51:20.782Z,16.33
2018-08-09T08:56:23.187Z,11.50
2018-08-09T09:01:25.368Z,13.87
2018-08-09T09:06:27.545Z,15.20
2018-08-09T09:11:29.701Z,14.47
2018-08-09T09:16:31.869Z,13.00
2018-08-09T09:21:34.092Z,17.50
2018-08-09T09:26:36.241Z,17.00
2018-08-09T09:31:38.430Z,15.70
2018-08-09T09:36:40.585Z,13.50
2018-08-09T09:41:42.722Z,11.73
2018-08-09T09:46:44.913Z,12.33
2018-08-09T09:51:47.069Z,10.70
2018-08-09T09:56:49.229Z,16.40
2018-08-09T10:01:52.173Z,12.40
2018-08-09T10:06:54.313Z,20.33
2018-08-09T10:11:56.530Z,15.07
2018-08-09T10:16:58.714Z,14.17
2018-08-09T10:22:00.981Z,12.80
2018-08-09T10:27:03.193Z,15.73
2018-08-09T10:32:05.372Z,16.83
2018-08-09T10:37:07.541Z,12.93
2018-08-09T10:42:09.722Z,15.33
2018-08-09T10:47:11.897Z,13.13
2018-08-09T10:52:14.066Z,11.53
2018-08-09T10:57:16.236Z,11.77
2018-08-09T11:02:18.717Z,11.53
2018-08-09T11:07:20.893Z,8.77
2018-08-09T11:12:23.088Z,7.97
2018-08-09T11:17:26.246Z,8.97
2018-08-09T11:22:29.049Z,15.20
2018-08-09T11:27:31.178Z,9.90
2018-08-09T11:32:33.586Z,9.43
2018-08-09T11:37:35.746Z,7.50
2018-08-09T11:42:37.897Z,9.83
2018-08-09T11:47:40.064Z,11.20
2018-08-09T11:52:42.233Z,10.07
2018-08-09T11:57:44.383Z,10.53
2018-08-09T12:02:46.538Z,8.30
2018-08-09T12:07:48.665Z,11.67
2018-08-09T12:12:50.817Z,10.47
2018-08-09T12:17:52.945Z,10.70
2018-08-09T12:22:55.172Z,11.03
2018-08-09T12:27:57.395Z,11.00
2018-08-09T12:32:59.627Z,11.70
2018-08-09T12:38:01.778Z,9.43
2018-08-09T12:43:04.248Z,9.30
2018-08-09T12:48:06.454Z,9.00
2018-08-09T12:53:08.630Z,10.57
2018-08-09T12:58:10.843Z,9.73
2018-08-09T13:03:13.038Z,8.80
2018-08-09T13:08:15.247Z,81.77
2018-08-09T13:13:17.433Z,57.77
2018-08-09T13:18:19.594Z,30.30
2018-08-09T13:23:21.778Z,14.47
2018-08-09T13:28:23.950Z,11.70
2018-08-09T13:33:26.145Z,6.53
2018-08-09T13:38:28.336Z,7.90
2018-08-09T13:43:30.523Z,12.00
2018-08-09T13:48:32.703Z,9.80
2018-08-09T13:53:34.894Z,7.77
2018-08-09T13:58:37.041Z,6.07
2018-08-09T14:03:39.193Z,3.20
2018-08-09T14:08:41.472Z,6.27
2018-08-09T14:13:43.685Z,4.40
2018-08-09T14:18:45.860Z,5.00
2018-08-09T14:23:48.049Z,6.60
2018-08-09T14:28:50.221Z,6.90
2018-08-09T14:33:52.410Z,11.33
2018-08-09T14:38:54.638Z,4.30
2018-08-09T14:43:56.812Z,8.27
2018-08-09T14:48:59.014Z,6.00
2018-08-09T14:54:01.194Z,12.47
2018-08-09T14:59:03.598Z,6.43
2018-08-09T15:04:05.976Z,17.67
2018-08-09T15:09:10.017Z,8.37
2018-08-09T15:14:12.213Z,4.27
2018-08-09T15:19:14.374Z,12.23
2018-08-09T15:24:16.555Z,11.97
2018-08-09T15:29:18.713Z,4.17
2018-08-09T15:34:20.873Z,4.63
2018-08-09T15:39:23.049Z,7.73
2018-08-09T15:44:25.214Z,9.53
2018-08-09T15:49:27.376Z,7.47
2018-08-09T15:54:29.581Z,13.47
2018-08-09T15:59:31.774Z,13.33
2018-08-09T16:04:34.031Z,15.40
2018-08-09T16:09:36.229Z,2.30
2018-08-09T16:14:38.452Z,5.57
2018-08-09T16:19:40.702Z,4.10
2018-08-09T16:24:42.911Z,3.70
2018-08-09T16:29:45.077Z,5.23
2018-08-09T16:34:47.329Z,2.83
2018-08-09T16:39:49.521Z,5.33
2018-08-09T16:44:51.718Z,7.57
2018-08-09T16:49:53.897Z,3.63
2018-08-09T16:54:56.061Z,6.13
2018-08-09T16:59:58.410Z,4.90
2018-08-09T17:05:01.415Z,3.83
2018-08-09T17:10:04.322Z,6.97
2018-08-09T17:15:10.006Z,7.30
2018-08-09T17:20:27.633Z,4.20
2018-08-09T17:25:29.858Z,6.33
2018-08-09T17:30:32.009Z,6.40
2018-08-09T17:35:34.189Z,3.37
2018-08-09T17:40:36.390Z,4.80
2018-08-09T17:45:45.329Z,4.57
2018-08-09T17:50:47.506Z,3.67
2018-08-09T17:55:49.709Z,2.60
2018-08-09T18:00:51.941Z,4.20
2018-08-09T18:05:54.134Z,3.67
2018-08-09T18:10:56.291Z,4.33
2018-08-09T18:15:58.566Z,4.73
2018-08-09T18:21:00.743Z,3.03
2018-08-09T18:26:02.951Z,2.50
2018-08-09T18:31:05.189Z,3.77
2018-08-09T18:36:07.405Z,5.20
2018-08-09T18:41:10.607Z,5.40
2018-08-09T18:46:12.788Z,1.80
2018-08-09T18:51:14.943Z,2.03
2018-08-09T18:56:17.192Z,2.10
2018-08-09T19:01:19.476Z,4.23
2018-08-09T19:06:21.693Z,5.83
2018-08-09T19:11:23.885Z,2.30
2018-08-09T19:16:26.045Z,4.13
2018-08-09T19:21:28.270Z,1.97
2018-08-09T19:26:30.522Z,5.57
2018-08-09T19:31:32.750Z,2.40
2018-08-09T19:36:34.923Z,6.73
2018-08-09T19:41:37.166Z,6.00
2018-08-09T19:46:39.364Z,5.17
2018-08-09T19:51:41.573Z,4.50
2018-08-09T19:56:43.797Z,3.90
2018-08-09T20:01:45.990Z,4.70
2018-08-09T20:06:48.289Z,4.40
2018-08-09T20:11:50.433Z,8.27
2018-08-09T20:16:52.618Z,5.30
2018-08-09T20:21:54.786Z,2.97
2018-08-09T20:26:56.954Z,2.60
2018-08-09T20:31:59.128Z,4.10
2018-08-09T20:37:01.701Z,2.30
2018-08-09T20:42:03.956Z,2.07
2018-08-09T20:47:06.133Z,4.80
2018-08-09T20:52:08.310Z,3.70
2018-08-09T20:57:10.442Z,1.60
2018-08-09T21:02:12.595Z,1.60
2018-08-09T21:07:14.780Z,3.73
2018-08-09T21:12:18.136Z,1.50
2018-08-09T21:17:20.305Z,3.43
2018-08-09T21:22:22.442Z,2.50
2018-08-09T21:27:24.594Z,1.60
2018-08-09T21:32:26.787Z,1.60
2018-08-09T21:37:28.890Z,1.30
2018-08-09T21:42:31.037Z,4.13
2018-08-09T21:47:33.193Z,2.80
2018-08-09T21:52:35.365Z,1.90
2018-08-09T21:57:37.509Z,1.73
2018-08-09T22:02:39.678Z,3.07
2018-08-09T22:07:47.690Z,1.60
2018-08-09T22:12:55.765Z,1.40
2018-08-09T22:18:03.669Z,1.50
2018-08-09T22:23:06.109Z,1.83
2018-08-09T22:28:08.307Z,3.13
2018-08-09T22:33:10.477Z,3.80
2018-08-09T22:38:12.662Z,1.67
2018-08-09T22:43:14.885Z,1.80
2018-08-09T22:48:17.081Z,2.00
2018-08-09T22:53:19.302Z,1.70
2018-08-09T22:58:21.477Z,3.07
2018-08-09T23:03:23.672Z,2.47
2018-08-09T23:08:25.872Z,1.90
2018-08-09T23:13:28.034Z,2.53
2018-08-09T23:18:30.217Z,2.07
2018-08-09T23:23:32.413Z,2.10
2018-08-09T23:28:34.593Z,1.77
2018-08-09T23:33:36.797Z,1.90
2018-08-09T23:38:38.998Z,2.47
2018-08-09T23:43:41.158Z,1.30
2018-08-09T23:48:43.360Z,1.30
2018-08-09T23:53:45.521Z,1.50
2018-08-09T23:58:47.702Z,1.73
